createdAt,value
2023-03-17T00:02:03.791Z,0.95
2023-03-17T00:04:37.267Z,0.96
2023-03-17T00:07:05.577Z,0.95
2023-03-17T00:09:35.776Z,0.96
2023-03-17T00:12:10.622Z,0.93
2023-03-17T00:14:41.802Z,0.94
2023-03-17T00:17:11.852Z,0.94
2023-03-17T00:19:42.921Z,0.93
2023-03-17T00:22:17.246Z,0.92
2023-03-17T00:24:45.523Z,0.91
2023-03-17T00:27:13.974Z,0.92
2023-03-17T00:29:43.965Z,0.91
2023-03-17T00:32:17.053Z,0.90
2023-03-17T00:34:45.590Z,0.90
2023-03-17T00:37:14.164Z,0.91
2023-03-17T00:39:42.223Z,0.92
2023-03-17T00:42:13.215Z,0.91
2023-03-17T00:44:41.726Z,0.93
2023-03-17T00:47:11.157Z,0.93
2023-03-17T00:49:41.318Z,0.92
2023-03-17T00:52:15.583Z,0.92
2023-03-17T00:54:43.776Z,0.93
2023-03-17T00:57:12.859Z,0.93
2023-03-17T00:59:42.876Z,0.91
2023-03-17T01:02:13.363Z,0.92
2023-03-17T01:04:45.568Z,0.92
2023-03-17T01:07:15.932Z,0.92
2023-03-17T01:09:45.365Z,0.92
2023-03-17T01:12:14.310Z,0.93
2023-03-17T01:14:43.791Z,0.92
2023-03-17T01:17:15.341Z,0.90
2023-03-17T01:19:46.449Z,0.91
2023-03-17T01:22:15.467Z,0.94
2023-03-17T01:24:43.847Z,0.96
2023-03-17T01:27:12.810Z,0.97
2023-03-17T01:29:41.783Z,0.96
2023-03-17T01:32:10.846Z,0.97
2023-03-17T01:34:39.952Z,0.99
2023-03-17T01:37:09.829Z,1.00
2023-03-17T01:39:38.293Z,0.97
2023-03-17T01:42:26.183Z,0.96
2023-03-17T01:45:02.921Z,0.97
2023-03-17T01:47:32.219Z,0.97
2023-03-17T01:50:07.637Z,0.96
2023-03-17T01:52:38.727Z,0.95
2023-03-17T01:55:14.796Z,0.95
2023-03-17T01:57:51.285Z,0.96
2023-03-17T02:00:21.259Z,0.96
2023-03-17T02:02:52.423Z,0.94
2023-03-17T02:05:23.109Z,0.95
2023-03-17T02:07:51.526Z,0.95
2023-03-17T02:10:20.681Z,0.93
2023-03-17T02:12:52.277Z,0.92
2023-03-17T02:15:20.594Z,0.94
2023-03-17T02:17:51.027Z,0.94
2023-03-17T02:20:20.022Z,0.96
2023-03-17T02:22:55.759Z,0.94
2023-03-17T02:25:23.950Z,0.94
2023-03-17T02:27:54.888Z,0.93
2023-03-17T02:30:24.677Z,0.93
2023-03-17T02:32:53.263Z,0.93
2023-03-17T02:35:23.516Z,0.94
2023-03-17T02:37:52.068Z,0.95
2023-03-17T02:40:22.210Z,0.96
2023-03-17T02:42:51.465Z,0.97
2023-03-17T02:45:19.613Z,0.97
2023-03-17T02:47:48.253Z,0.96
2023-03-17T02:50:23.167Z,0.97
2023-03-17T02:52:51.451Z,0.96
2023-03-17T02:55:20.496Z,0.97
2023-03-17T02:57:48.938Z,0.95
2023-03-17T03:00:21.661Z,0.94
2023-03-17T03:02:50.073Z,0.94
2023-03-17T03:05:21.349Z,0.94
2023-03-17T03:07:51.630Z,0.94
2023-03-17T03:10:19.716Z,0.93
2023-03-17T03:12:53.356Z,0.94
2023-03-17T03:15:21.671Z,0.92
2023-03-17T03:17:51.092Z,0.93
2023-03-17T03:20:21.934Z,0.93
2023-03-17T03:22:50.764Z,0.92
2023-03-17T03:25:19.060Z,0.93
2023-03-17T03:27:47.632Z,0.92
2023-03-17T03:30:15.947Z,0.92
2023-03-17T03:32:46.815Z,0.94
2023-03-17T03:35:15.002Z,0.94
2023-03-17T03:37:44.114Z,0.92
2023-03-17T03:40:13.564Z,0.90
2023-03-17T03:42:42.292Z,0.89
2023-03-17T03:45:10.788Z,0.89
2023-03-17T03:47:38.848Z,0.89
2023-03-17T03:50:10.681Z,0.90
2023-03-17T03:52:39.704Z,0.90
2023-03-17T03:55:08.191Z,0.88
2023-03-17T03:57:36.617Z,0.90
2023-03-17T04:00:05.294Z,0.91
2023-03-17T04:02:46.788Z,0.92
2023-03-17T04:05:17.373Z,0.93
2023-03-17T04:07:48.028Z,0.91
2023-03-17T04:10:16.665Z,0.91
2023-03-17T04:12:46.007Z,0.93
2023-03-17T04:15:18.409Z,0.95
2023-03-17T04:17:48.701Z,0.96
2023-03-17T04:20:17.835Z,0.96
2023-03-17T04:22:49.400Z,0.96
2023-03-17T04:25:18.105Z,0.96
2023-03-17T04:27:46.332Z,0.97
2023-03-17T04:30:14.785Z,0.97
2023-03-17T04:32:43.277Z,0.98
2023-03-17T04:35:18.890Z,1.00
2023-03-17T04:37:48.619Z,1.01
2023-03-17T04:40:17.583Z,1.02
2023-03-17T04:42:46.452Z,1.01
2023-03-17T04:45:17.485Z,1.02
2023-03-17T04:47:48.647Z,1.04
2023-03-17T04:50:20.072Z,1.04
2023-03-17T04:52:52.098Z,1.03
2023-03-17T04:55:21.342Z,1.04
2023-03-17T04:57:49.692Z,1.04
2023-03-17T05:00:18.606Z,1.05
2023-03-17T05:02:46.898Z,1.06
2023-03-17T05:05:19.072Z,1.10
2023-03-17T05:07:47.805Z,1.11
2023-03-17T05:10:15.980Z,1.12
2023-03-17T05:12:46.332Z,1.11
2023-03-17T05:15:15.365Z,1.11
2023-03-17T05:17:43.524Z,1.12
2023-03-17T05:20:12.682Z,1.10
2023-03-17T05:22:41.859Z,1.10
2023-03-17T05:25:10.639Z,1.10
2023-03-17T05:27:40.104Z,1.12
2023-03-17T05:30:09.395Z,1.12
2023-03-17T05:32:37.838Z,1.13
2023-03-17T05:35:07.535Z,1.11
2023-03-17T05:37:38.170Z,1.11
2023-03-17T05:40:08.442Z,1.11
2023-03-17T05:42:36.740Z,1.12
2023-03-17T05:45:05.893Z,1.11
2023-03-17T05:47:36.564Z,1.09
2023-03-17T05:50:05.929Z,1.07
2023-03-17T05:52:34.164Z,1.07
2023-03-17T05:55:04.739Z,1.07
2023-03-17T05:57:33.279Z,1.06
2023-03-17T06:00:01.572Z,1.06
2023-03-17T06:02:35.551Z,1.07
2023-03-17T06:05:03.909Z,1.08
2023-03-17T06:07:44.641Z,1.09
2023-03-17T06:10:18.449Z,1.09
2023-03-17T06:12:46.619Z,1.11
2023-03-17T06:15:16.726Z,1.12
2023-03-17T06:17:44.897Z,1.14
2023-03-17T06:20:16.896Z,1.14
2023-03-17T06:23:02.327Z,1.16
2023-03-17T06:25:31.755Z,1.17
2023-03-17T06:28:03.996Z,1.19
2023-03-17T06:30:33.328Z,1.20
2023-03-17T06:33:07.168Z,1.21
2023-03-17T06:35:36.250Z,1.18
2023-03-17T06:38:05.158Z,1.20
2023-03-17T06:40:34.448Z,1.19
2023-03-17T06:43:03.341Z,1.16
2023-03-17T06:45:37.602Z,1.18
2023-03-17T06:48:07.116Z,1.18
2023-03-17T06:50:35.313Z,1.21
2023-03-17T06:53:05.490Z,1.23
2023-03-17T06:55:34.680Z,1.24
2023-03-17T06:58:06.461Z,1.26
2023-03-17T07:00:38.520Z,1.26
2023-03-17T07:03:06.631Z,1.26
2023-03-17T07:05:35.750Z,1.25
2023-03-17T07:08:04.026Z,1.25
2023-03-17T07:10:33.369Z,1.27
2023-03-17T07:13:07.810Z,1.27
2023-03-17T07:15:37.360Z,1.27
2023-03-17T07:18:07.142Z,1.29
2023-03-17T07:20:36.330Z,1.27
2023-03-17T07:23:04.506Z,1.27
2023-03-17T07:25:36.989Z,1.27
2023-03-17T07:28:05.718Z,1.25
2023-03-17T07:30:35.817Z,1.28
2023-03-17T07:33:04.514Z,1.31
2023-03-17T07:35:34.309Z,1.32
2023-03-17T07:38:03.156Z,1.33
2023-03-17T07:40:34.289Z,1.34
2023-03-17T07:43:04.834Z,1.34
2023-03-17T07:45:35.373Z,1.32
2023-03-17T07:48:05.223Z,1.32
2023-03-17T07:50:37.896Z,1.33
2023-03-17T07:53:06.347Z,1.35
2023-03-17T07:55:37.054Z,1.36
2023-03-17T07:58:06.097Z,1.39
2023-03-17T08:00:34.795Z,1.41
2023-03-17T08:03:10.402Z,1.44
2023-03-17T08:05:39.734Z,1.48
2023-03-17T08:08:12.818Z,1.50
2023-03-17T08:10:42.593Z,1.50
2023-03-17T08:13:10.826Z,1.51
2023-03-17T08:15:41.755Z,1.52
2023-03-17T08:18:10.603Z,1.53
2023-03-17T08:20:39.247Z,1.54
2023-03-17T08:23:09.344Z,1.53
2023-03-17T08:25:37.535Z,1.52
2023-03-17T08:28:05.740Z,1.51
2023-03-17T08:30:35.115Z,1.52
2023-03-17T08:33:04.532Z,1.53
2023-03-17T08:35:34.554Z,1.55
2023-03-17T08:38:04.092Z,1.60
2023-03-17T08:40:32.631Z,1.62
2023-03-17T08:43:01.513Z,1.64
2023-03-17T08:45:29.941Z,1.64
2023-03-17T08:48:02.046Z,1.63
2023-03-17T08:50:31.198Z,1.60
2023-03-17T08:52:59.427Z,1.58
2023-03-17T08:55:30.793Z,1.58
2023-03-17T08:57:59.051Z,1.58
2023-03-17T09:00:27.233Z,1.59
2023-03-17T09:02:56.955Z,1.59
2023-03-17T09:05:25.295Z,1.61
2023-03-17T09:07:53.644Z,1.62
2023-03-17T09:10:23.864Z,1.63
2023-03-17T09:13:05.725Z,1.63
2023-03-17T09:15:34.523Z,1.65
2023-03-17T09:18:03.425Z,1.68
2023-03-17T09:20:31.826Z,1.70
2023-03-17T09:23:00.849Z,1.69
2023-03-17T09:25:29.474Z,1.71
2023-03-17T09:27:58.831Z,1.73
2023-03-17T09:30:27.072Z,1.75
2023-03-17T09:32:55.303Z,1.80
2023-03-17T09:35:23.781Z,1.85
2023-03-17T09:37:52.254Z,1.88
2023-03-17T09:40:22.295Z,1.90
2023-03-17T09:42:58.248Z,1.93
2023-03-17T09:45:42.981Z,1.96
2023-03-17T09:48:14.655Z,1.97
2023-03-17T09:50:54.105Z,1.92
2023-03-17T09:53:34.241Z,1.85
2023-03-17T09:56:07.264Z,1.82
2023-03-17T09:58:38.501Z,1.82
2023-03-17T10:01:09.111Z,1.83
2023-03-17T13:43:24.557Z,2.46
2023-03-17T13:45:52.824Z,2.60
2023-03-17T13:48:36.493Z,2.60
2023-03-17T13:51:21.164Z,2.57
2023-03-17T13:53:57.548Z,2.54
2023-03-17T13:56:27.819Z,2.53
2023-03-17T13:59:02.410Z,2.48
2023-03-17T14:01:39.170Z,2.44
2023-03-17T14:04:13.147Z,2.40
2023-03-17T14:06:42.315Z,2.40
2023-03-17T14:09:38.184Z,2.40
2023-03-17T14:12:18.332Z,2.40
2023-03-17T14:15:11.231Z,2.40
2023-03-17T14:17:57.691Z,2.41
2023-03-17T14:20:30.338Z,2.42
2023-03-17T14:23:03.143Z,2.41
2023-03-17T14:25:36.226Z,2.42
2023-03-17T14:28:06.156Z,2.43
2023-03-17T14:30:35.237Z,2.45
2023-03-17T14:33:21.698Z,2.47
2023-03-17T14:35:51.268Z,2.45
2023-03-17T14:38:29.102Z,2.44
2023-03-17T14:41:16.896Z,2.42
2023-03-17T14:43:49.033Z,2.40
2023-03-17T14:46:25.835Z,2.40
2023-03-17T14:49:02.503Z,2.41
2023-03-17T14:51:38.045Z,2.40
2023-03-17T14:54:31.340Z,2.41
2023-03-17T14:57:03.434Z,2.41
2023-03-17T14:59:40.681Z,2.40
2023-03-17T15:02:21.612Z,2.40
2023-03-17T15:04:54.297Z,2.40
2023-03-17T15:07:30.284Z,2.42
2023-03-17T15:10:02.019Z,2.41
2023-03-17T15:12:30.649Z,2.41
2023-03-17T15:15:02.217Z,2.42
2023-03-17T15:17:35.134Z,2.43
2023-03-17T15:20:06.865Z,2.44
2023-03-17T15:22:34.936Z,2.44
2023-03-17T15:25:22.230Z,2.45
2023-03-17T15:27:50.816Z,2.45
2023-03-17T15:30:19.518Z,2.44
2023-03-17T15:33:03.370Z,2.44
2023-03-17T15:35:31.718Z,2.43
2023-03-17T15:38:00.081Z,2.41
2023-03-17T15:40:28.601Z,2.40
2023-03-17T15:43:00.731Z,2.37
2023-03-17T15:45:29.266Z,2.36
2023-03-17T15:47:57.379Z,2.35
2023-03-17T15:50:28.879Z,2.35
2023-03-17T15:52:58.638Z,2.37
2023-03-17T15:55:31.875Z,2.39
2023-03-17T15:58:00.434Z,2.38
2023-03-17T16:00:34.891Z,2.38
2023-03-17T16:03:41.130Z,2.38
2023-03-17T16:06:15.698Z,2.38
2023-03-17T16:08:44.190Z,2.37
2023-03-17T16:11:17.903Z,2.37
2023-03-17T16:13:47.554Z,2.37
2023-03-17T16:16:30.314Z,2.38
2023-03-17T16:18:59.076Z,2.39
2023-03-17T16:21:27.585Z,2.39
2023-03-17T16:23:55.999Z,2.40
2023-03-17T16:26:24.556Z,2.42
2023-03-17T16:28:54.108Z,2.43
2023-03-17T16:31:23.350Z,2.43
2023-03-17T16:33:52.941Z,2.44
2023-03-17T16:36:21.910Z,2.45
2023-03-17T16:38:50.343Z,2.46
2023-03-17T16:41:22.390Z,2.48
2023-03-17T16:43:51.497Z,2.49
2023-03-17T16:46:21.239Z,2.49
2023-03-17T16:48:51.217Z,2.49
2023-03-17T16:51:19.602Z,2.50
2023-03-17T16:53:47.976Z,2.52
2023-03-17T16:56:21.664Z,2.55
2023-03-17T16:58:52.015Z,2.55
2023-03-17T17:01:22.130Z,2.55
2023-03-17T17:03:50.430Z,2.56
2023-03-17T17:06:19.691Z,2.58
2023-03-17T17:08:48.369Z,2.58
2023-03-17T17:11:17.228Z,2.59
2023-03-17T17:13:47.838Z,2.61
2023-03-17T17:16:30.297Z,2.63
2023-03-17T17:18:59.305Z,2.65
2023-03-17T17:21:28.543Z,2.66
2023-03-17T17:23:56.942Z,2.67
2023-03-17T17:26:27.651Z,2.68
2023-03-17T17:28:55.827Z,2.69
2023-03-17T17:31:25.093Z,2.70
2023-03-17T17:33:54.739Z,2.71
2023-03-17T17:36:22.953Z,2.72
2023-03-17T17:38:52.214Z,2.72
2023-03-17T17:41:23.768Z,2.72
2023-03-17T17:43:53.856Z,2.74
2023-03-17T17:46:24.295Z,2.75
2023-03-17T17:48:52.607Z,2.76
2023-03-17T17:51:21.096Z,2.75
2023-03-17T17:53:49.278Z,2.76
2023-03-17T17:56:17.870Z,2.77
2023-03-17T17:58:50.131Z,2.79
2023-03-17T18:01:22.083Z,2.80
2023-03-17T18:03:54.800Z,2.80
2023-03-17T18:06:23.054Z,2.81
2023-03-17T18:08:51.287Z,2.81
2023-03-17T18:11:22.908Z,2.83
2023-03-17T18:13:51.472Z,2.84
2023-03-17T18:16:19.722Z,2.85
2023-03-17T18:18:52.150Z,2.86
2023-03-17T18:21:21.567Z,2.87
2023-03-17T18:23:50.165Z,2.87
2023-03-17T18:26:18.487Z,2.88
2023-03-17T18:28:48.191Z,2.88
2023-03-17T18:31:34.137Z,2.89
2023-03-17T18:34:06.555Z,2.89
2023-03-17T18:36:35.826Z,2.90
2023-03-17T18:39:05.162Z,2.91
2023-03-17T18:41:36.634Z,2.92
2023-03-17T18:44:04.996Z,2.92
2023-03-17T18:46:33.847Z,2.93
2023-03-17T18:49:02.123Z,2.94
2023-03-17T18:51:32.118Z,2.95
2023-03-17T18:54:00.332Z,2.95
2023-03-17T18:56:29.881Z,2.96
2023-03-17T18:58:58.455Z,2.96
2023-03-17T19:01:30.302Z,2.97
2023-03-17T19:03:58.595Z,2.96
2023-03-17T19:06:26.898Z,2.97
2023-03-17T19:08:54.958Z,2.97
2023-03-17T19:11:23.125Z,2.98
2023-03-17T19:13:52.576Z,2.98
2023-03-17T19:16:29.127Z,2.97
2023-03-17T19:18:58.191Z,2.97
2023-03-17T19:21:26.373Z,2.98
2023-03-17T19:23:58.501Z,2.98
2023-03-17T19:26:31.340Z,2.99
2023-03-17T19:29:09.860Z,2.98
2023-03-17T19:31:41.758Z,2.98
2023-03-17T19:34:12.479Z,2.97
2023-03-17T19:36:41.820Z,2.97
2023-03-17T19:39:13.865Z,2.97
2023-03-17T19:41:42.934Z,2.97
2023-03-17T19:44:11.703Z,2.98
2023-03-17T19:46:39.883Z,2.99
2023-03-17T19:49:08.005Z,2.99
2023-03-17T19:51:36.915Z,2.97
2023-03-17T19:54:13.979Z,2.98
2023-03-17T19:56:42.634Z,2.99
2023-03-17T19:59:19.231Z,2.99
2023-03-17T20:01:48.905Z,2.97
2023-03-17T20:04:23.973Z,2.96
2023-03-17T20:06:55.629Z,2.95
2023-03-17T20:09:26.275Z,2.94
2023-03-17T20:11:54.509Z,2.94
2023-03-17T20:14:23.799Z,2.94
2023-03-17T20:16:53.540Z,2.95
2023-03-17T20:19:22.071Z,2.95
2023-03-17T20:21:50.508Z,2.96
2023-03-17T20:24:19.210Z,2.97
2023-03-17T20:26:51.828Z,2.98
2023-03-17T20:29:20.012Z,2.97
2023-03-17T20:31:48.617Z,2.98
2023-03-17T20:34:18.217Z,2.98
2023-03-17T20:36:46.955Z,2.99
2023-03-17T20:39:20.033Z,3.00
2023-03-17T20:41:51.881Z,3.00
2023-03-17T20:44:21.457Z,3.01
2023-03-17T20:46:51.323Z,3.03
2023-03-17T20:49:19.719Z,3.02
2023-03-17T20:51:54.497Z,3.00
2023-03-17T20:54:25.882Z,3.00
2023-03-17T20:56:55.981Z,3.00
2023-03-17T20:59:24.913Z,3.01
2023-03-17T21:01:53.475Z,3.01
2023-03-17T21:04:31.365Z,3.00
2023-03-17T21:06:59.825Z,3.00
2023-03-17T21:09:28.516Z,3.02
2023-03-17T21:11:58.329Z,3.02
2023-03-17T21:14:29.889Z,3.02
2023-03-17T21:16:57.927Z,3.01
2023-03-17T21:19:26.245Z,3.03
2023-03-17T21:21:54.732Z,3.05
2023-03-17T21:24:33.687Z,3.06
2023-03-17T21:27:05.262Z,3.07
2023-03-17T21:29:33.948Z,3.09
2023-03-17T21:32:07.523Z,3.10
2023-03-17T21:34:36.079Z,3.11
2023-03-17T21:37:04.454Z,3.10
2023-03-17T21:39:36.745Z,3.09
2023-03-17T21:42:05.423Z,3.09
2023-03-17T21:44:37.380Z,3.10
2023-03-17T21:47:07.792Z,3.11
2023-03-17T21:49:36.156Z,3.11
2023-03-17T21:52:04.745Z,3.10
2023-03-17T21:54:35.422Z,3.10
2023-03-17T21:57:05.692Z,3.10
2023-03-17T21:59:37.126Z,3.09
2023-03-17T22:02:05.508Z,3.09
2023-03-17T22:04:36.374Z,3.08
2023-03-17T22:07:04.886Z,3.08
2023-03-17T22:09:37.754Z,3.08
2023-03-17T22:12:08.113Z,3.08
2023-03-17T22:14:36.686Z,3.07
2023-03-17T22:17:06.498Z,3.06
2023-03-17T22:19:35.503Z,3.06
2023-03-17T22:22:06.958Z,3.03
2023-03-17T22:24:35.428Z,3.02
2023-03-17T22:27:05.039Z,3.00
2023-03-17T22:29:37.015Z,2.96
2023-03-17T22:32:06.648Z,2.94
2023-03-17T22:34:35.117Z,2.94
2023-03-17T22:37:04.249Z,2.94
2023-03-17T22:39:34.785Z,2.94
2023-03-17T22:42:03.116Z,2.94
2023-03-17T22:44:31.961Z,2.93
2023-03-17T22:47:00.487Z,2.92
2023-03-17T22:49:29.902Z,2.93
2023-03-17T22:51:58.933Z,2.92
2023-03-17T22:54:27.168Z,2.92
2023-03-17T22:56:56.584Z,2.91
2023-03-17T22:59:24.638Z,2.91
2023-03-17T23:01:52.821Z,2.89
2023-03-17T23:04:20.896Z,2.88
2023-03-17T23:06:49.040Z,2.87
2023-03-17T23:09:17.341Z,2.85
2023-03-17T23:11:47.479Z,2.85
2023-03-17T23:14:17.182Z,2.85
2023-03-17T23:16:45.697Z,2.83
2023-03-17T23:19:20.503Z,2.82
2023-03-17T23:21:48.631Z,2.80
2023-03-17T23:24:17.463Z,2.78
2023-03-17T23:26:46.535Z,2.77
2023-03-17T23:29:16.085Z,2.76
2023-03-17T23:31:45.739Z,2.74
2023-03-17T23:34:14.375Z,2.74
2023-03-17T23:36:42.847Z,2.73
2023-03-17T23:39:11.776Z,2.74
2023-03-17T23:41:40.321Z,2.74
2023-03-17T23:44:09.426Z,2.74
2023-03-17T23:46:38.932Z,2.76
2023-03-17T23:49:08.361Z,2.75
2023-03-17T23:51:36.916Z,2.75
2023-03-17T23:54:07.757Z,2.75
2023-03-17T23:56:37.323Z,2.76
2023-03-17T23:59:07.630Z,2.76
